Time;durP1;ratioP1;P1;durP2;ratioP2;P2;SDS_P1;SDS_P2;PMS_P1;PMS_P2;Temp;Humidity;BMP_temperature;BMP_pressure;BME280_temperature;BME280_humidity;BME280_pressure;Samples;Min_cycle;Max_cycle;Signal;HPM_P1;HPM_P2
2022/06/12 00:01:26;;;;;;;9.32;4.80;;;19.90;99.90;;;;;;5093957;28;20448;-64
2022/06/12 00:03:52;;;;;;;;;;;19.90;99.90;;;;;;5094530;28;20484;-64
2022/06/12 00:06:20;;;;;;;5.68;4.00;;;19.80;99.90;;;;;;5094116;28;19912;-64
2022/06/12 00:08:46;;;;;;;7.68;4.63;;;19.80;99.90;;;;;;5092508;28;20073;-64
2022/06/12 00:11:14;;;;;;;6.30;4.47;;;19.80;99.90;;;;;;5093709;28;20475;-64
2022/06/12 00:13:44;;;;;;;5.40;3.75;;;19.80;99.90;;;;;;5094093;28;20028;-65
2022/06/12 00:16:11;;;;;;;6.82;4.07;;;19.80;99.90;;;;;;5093690;28;20032;-65
2022/06/12 00:18:39;;;;;;;9.93;4.40;;;19.70;99.90;;;;;;5093892;28;20379;-64
2022/06/12 00:21:13;;;;;;;6.40;4.57;;;19.70;99.90;;;;;;5093759;28;20020;-64
2022/06/12 00:23:49;;;;;;;6.03;4.60;;;19.70;99.90;;;;;;5094009;28;20024;-64
2022/06/12 00:26:21;;;;;;;5.50;4.10;;;19.60;99.90;;;;;;5093939;28;20449;-65
2022/06/12 00:28:46;;;;;;;6.13;4.35;;;19.60;99.90;;;;;;5094211;28;20035;-64
2022/06/12 00:31:12;;;;;;;5.68;4.20;;;19.60;99.90;;;;;;5093684;28;20032;-64
2022/06/12 00:33:38;;;;;;;8.50;4.40;;;19.60;99.90;;;;;;5092299;28;20028;-64
2022/06/12 00:36:04;;;;;;;6.15;4.43;;;19.60;99.90;;;;;;5093422;28;20107;-64
2022/06/12 00:38:29;;;;;;;8.43;5.13;;;19.60;99.90;;;;;;5093662;28;20043;-64
2022/06/12 00:40:55;;;;;;;6.55;4.38;;;19.50;99.90;;;;;;5093371;28;20028;-63
2022/06/12 00:43:22;;;;;;;5.13;3.60;;;19.60;99.90;;;;;;5093050;28;20055;-63
2022/06/12 00:45:52;;;;;;;5.53;4.43;;;19.50;99.90;;;;;;5093103;28;20124;-63
2022/06/12 00:48:25;;;;;;;7.45;4.07;;;19.50;99.90;;;;;;5093201;28;20027;-63
2022/06/12 00:51:02;;;;;;;5.32;4.00;;;19.50;99.90;;;;;;5093270;28;20174;-64
2022/06/12 00:53:37;;;;;;;5.85;3.75;;;19.40;99.90;;;;;;5093239;28;20058;-63
2022/06/12 00:56:06;;;;;;;4.95;3.60;;;19.40;99.90;;;;;;5092986;28;20012;-63
2022/06/12 00:58:37;;;;;;;7.72;4.10;;;19.40;99.90;;;;;;5092826;28;20450;-63
2022/06/12 01:01:07;;;;;;;6.85;3.88;;;19.40;99.90;;;;;;5093127;28;20156;-64
2022/06/12 01:06:33;;;;;;;6.72;4.18;;;19.40;99.90;;;;;;5092878;28;20028;-63
2022/06/12 01:06:34;;;;;;;7.38;3.88;;;19.30;99.90;;;;;;5114440;22;20427;-62
2022/06/12 01:09:11;;;;;;;6.82;4.28;;;19.40;99.90;;;;;;5074909;28;20020;-64
2022/06/12 01:11:38;;;;;;;7.55;4.15;;;19.30;99.90;;;;;;5093292;28;20074;-61
2022/06/12 01:14:07;;;;;;;8.25;4.22;;;19.30;99.90;;;;;;5093071;28;20066;-62
2022/06/12 01:16:34;;;;;;;7.90;4.47;;;19.20;99.90;;;;;;5093076;28;20449;-63
2022/06/12 01:19:00;;;;;;;7.47;4.10;;;19.20;99.90;;;;;;5093081;28;20024;-63
2022/06/12 01:21:32;;;;;;;;;;;19.10;99.90;;;;;;5093557;28;20099;-62
2022/06/12 01:24:29;;;;;;;6.03;3.97;;;19.10;99.90;;;;;;5093291;28;20017;-63
2022/06/12 01:27:00;;;;;;;5.53;3.55;;;19.00;99.90;;;;;;5093135;28;20058;-62
2022/06/12 01:29:25;;;;;;;5.72;4.40;;;19.10;99.90;;;;;;5093408;28;20041;-63
2022/06/12 01:31:59;;;;;;;7.05;3.75;;;19.00;99.90;;;;;;5074911;28;20028;-61
2022/06/12 01:34:36;;;;;;;7.10;3.35;;;19.00;99.90;;;;;;5093146;28;20025;-62
2022/06/12 01:37:36;;;;;;;6.50;4.00;;;19.00;99.90;;;;;;5093256;28;20025;-61
2022/06/12 01:40:47;;;;;;;6.30;3.83;;;19.00;99.90;;;;;;5075171;28;20020;-62
2022/06/12 01:43:16;;;;;;;6.68;4.63;;;18.90;99.90;;;;;;5089770;28;20028;-61
2022/06/12 01:45:48;;;;;;;5.15;3.60;;;18.90;99.90;;;;;;5093275;28;20052;-60
2022/06/12 01:48:34;;;;;;;7.53;3.80;;;18.90;99.90;;;;;;5093329;28;20016;-61
2022/06/12 01:51:19;;;;;;;5.70;4.20;;;18.90;99.90;;;;;;5093525;28;20027;-61
2022/06/12 01:54:03;;;;;;;7.43;3.80;;;18.90;99.90;;;;;;5074690;28;20044;-61
2022/06/12 01:56:48;;;;;;;8.18;4.10;;;18.90;99.90;;;;;;5092926;28;20016;-61
2022/06/12 01:59:19;;;;;;;5.63;3.75;;;18.80;99.90;;;;;;5096080;28;20016;-60
2022/06/12 02:01:56;;;;;;;5.63;3.92;;;18.80;99.90;;;;;;5078264;28;20028;-61
2022/06/12 02:04:31;;;;;;;10.02;4.40;;;18.80;99.90;;;;;;5096933;28;20020;-61
2022/06/12 02:07:22;;;;;;;7.97;5.15;;;18.80;99.90;;;;;;5096023;28;20463;-58
2022/06/12 02:09:57;;;;;;;8.20;5.43;;;18.80;99.90;;;;;;5077980;28;20089;-61
2022/06/12 02:15:28;;;;;;;7.93;4.32;;;18.70;99.90;;;;;;5096931;28;20039;-62
2022/06/12 02:18:22;;;;;;;5.88;4.20;;;18.80;99.90;;;;;;5096570;28;20020;-61
2022/06/12 02:20:53;;;;;;;7.05;4.18;;;18.70;99.90;;;;;;5069309;28;20031;-62
2022/06/12 02:23:27;;;;;;;6.70;4.45;;;18.70;99.90;;;;;;5095977;28;20445;-61
2022/06/12 02:25:55;;;;;;;9.13;4.85;;;18.60;99.90;;;;;;5096608;28;20409;-58
2022/06/12 02:28:29;;;;;;;7.45;4.18;;;18.60;99.90;;;;;;5096088;28;20073;-62
2022/06/12 02:31:03;;;;;;;5.55;3.85;;;18.60;99.90;;;;;;5095921;28;20047;-60
2022/06/12 02:33:36;;;;;;;6.10;4.60;;;18.60;99.90;;;;;;5096737;28;20016;-61
2022/06/12 02:36:08;;;;;;;8.10;4.53;;;18.50;99.90;;;;;;5097388;28;20073;-62
2022/06/12 02:38:40;;;;;;;8.68;4.38;;;18.50;99.90;;;;;;5097093;28;20067;-62
2022/06/12 02:41:18;;;;;;;8.00;4.28;;;18.50;99.90;;;;;;5097377;28;20028;-62
2022/06/12 02:43:45;;;;;;;6.15;4.28;;;18.50;99.90;;;;;;5079135;28;20024;-61
2022/06/12 02:46:23;;;;;;;6.20;4.10;;;18.50;99.90;;;;;;5096630;28;20077;-62
2022/06/12 02:48:49;;;;;;;5.57;3.38;;;18.40;99.90;;;;;;5096183;28;20489;-60
2022/06/12 02:51:28;;;;;;;6.18;3.42;;;18.50;99.90;;;;;;5097236;28;20062;-62
2022/06/12 02:54:09;;;;;;;5.40;3.25;;;18.40;99.90;;;;;;5098616;28;20024;-61
2022/06/12 02:56:43;;;;;;;6.40;3.47;;;18.30;99.90;;;;;;5097789;28;20032;-61
2022/06/12 02:59:23;;;;;;;4.25;3.53;;;18.30;99.90;;;;;;5097302;28;20023;-62
2022/06/12 03:02:04;;;;;;;6.53;3.17;;;18.30;99.90;;;;;;5078584;28;20468;-61
2022/06/12 03:04:56;;;;;;;5.50;2.85;;;18.20;99.90;;;;;;5097857;28;20099;-62
2022/06/12 03:07:22;;;;;;;4.15;2.85;;;18.20;99.90;;;;;;5072966;28;20064;-62
2022/06/12 03:09:47;;;;;;;3.78;3.00;;;18.20;99.90;;;;;;5099204;28;20033;-62
2022/06/12 03:12:13;;;;;;;4.65;3.30;;;18.20;99.90;;;;;;5099418;28;20032;-62
2022/06/12 03:14:40;;;;;;;4.60;2.88;;;18.20;99.90;;;;;;5098604;28;20025;-62
2022/06/12 03:17:06;;;;;;;5.88;3.60;;;18.20;99.90;;;;;;5082358;28;20035;-60
2022/06/12 03:19:33;;;;;;;;;;;18.20;99.90;;;;;;5078931;28;20047;-59
2022/06/12 03:22:05;;;;;;;8.90;3.25;;;18.20;99.90;;;;;;5095661;28;20340;-59
2022/06/12 03:24:52;;;;;;;4.35;3.25;;;18.20;99.90;;;;;;5095995;28;20425;-58
2022/06/12 03:27:45;;;;;;;4.90;3.08;;;18.20;99.90;;;;;;5096864;28;20468;-61
2022/06/12 03:30:17;;;;;;;6.28;3.78;;;18.20;99.90;;;;;;5071477;28;20032;-61
2022/06/12 03:33:14;;;;;;;7.85;3.40;;;18.20;99.90;;;;;;5100051;28;20485;-63
2022/06/12 03:35:50;;;;;;;6.03;3.60;;;18.20;99.90;;;;;;5101389;28;20026;-60
2022/06/12 03:38:43;;;;;;;7.50;4.47;;;18.10;99.90;;;;;;5095295;28;20027;-62
2022/06/12 03:41:25;;;;;;;6.97;3.60;;;18.10;99.90;;;;;;5076533;28;20020;-59
2022/06/12 03:44:14;;;;;;;4.70;3.05;;;18.10;99.90;;;;;;5077924;28;20046;-60
2022/06/12 03:47:02;;;;;;;5.50;3.30;;;18.10;99.90;;;;;;5077170;28;20030;-61
2022/06/12 03:49:42;;;;;;;7.40;3.55;;;18.10;99.90;;;;;;5078087;28;20039;-61
2022/06/12 03:52:29;;;;;;;6.22;3.35;;;18.10;99.90;;;;;;5096392;28;20202;-61
2022/06/12 03:54:58;;;;;;;4.50;3.72;;;18.10;99.90;;;;;;5098589;28;20021;-59
2022/06/12 03:57:53;;;;;;;6.35;3.38;;;18.10;99.90;;;;;;5097705;28;20016;-61
2022/06/12 04:00:18;;;;;;;6.60;4.05;;;18.10;99.90;;;;;;5104183;28;20031;-60
2022/06/12 04:02:49;;;;;;;5.70;3.47;;;18.10;99.90;;;;;;5095864;28;20099;-61
2022/06/12 04:05:22;;;;;;;5.40;3.38;;;18.20;99.90;;;;;;5077075;28;20031;-60
2022/06/12 04:07:52;;;;;;;7.47;3.92;;;18.10;99.90;;;;;;5094996;28;20028;-61
2022/06/12 04:10:22;;;;;;;6.55;4.10;;;18.10;99.90;;;;;;5094935;28;20027;-59
2022/06/12 04:12:48;;;;;;;5.50;3.88;;;18.20;99.90;;;;;;5095080;28;20020;-61
2022/06/12 04:15:30;;;;;;;5.47;3.95;;;18.20;99.90;;;;;;5094721;28;20476;-61
2022/06/12 04:17:56;;;;;;;6.22;3.70;;;18.20;99.90;;;;;;5095026;28;20088;-61
2022/06/12 04:20:27;;;;;;;5.95;4.03;;;18.10;99.90;;;;;;5094160;28;20055;-62
2022/06/12 04:23:03;;;;;;;5.28;3.85;;;18.10;99.90;;;;;;5094208;28;20066;-61
2022/06/12 04:25:42;;;;;;;6.50;4.03;;;18.00;99.90;;;;;;5094661;28;20032;-61
2022/06/12 04:28:25;;;;;;;8.45;4.28;;;18.00;99.90;;;;;;5094568;28;20422;-63
2022/06/12 04:30:51;;;;;;;7.00;3.58;;;18.00;99.90;;;;;;5094342;28;20016;-60
2022/06/12 04:33:54;;;;;;;8.52;3.92;;;18.00;99.90;;;;;;5093459;28;20068;-60
2022/06/12 04:36:20;;;;;;;6.63;3.83;;;18.10;99.90;;;;;;5093509;28;20020;-59
2022/06/12 04:38:46;;;;;;;4.68;3.65;;;18.30;99.90;;;;;;5095018;28;20127;-61
2022/06/12 04:41:20;;;;;;;5.18;3.33;;;18.30;99.90;;;;;;5075393;28;20056;-61
2022/06/12 04:43:46;;;;;;;7.32;3.80;;;18.30;99.90;;;;;;5093739;28;20028;-61
2022/06/12 04:46:11;;;;;;;5.60;3.90;;;18.20;99.90;;;;;;5093258;28;20073;-61
2022/06/12 04:48:44;;;;;;;4.78;3.63;;;18.20;99.90;;;;;;5093589;28;20432;-62
2022/06/12 04:51:11;;;;;;;5.80;3.80;;;18.20;99.90;;;;;;5075214;28;20063;-64
2022/06/12 04:53:37;;;;;;;5.25;3.38;;;18.30;99.90;;;;;;5093102;28;20075;-61
2022/06/12 04:56:04;;;;;;;5.10;3.45;;;18.30;99.90;;;;;;5074911;28;20017;-62
2022/06/12 04:58:30;;;;;;;4.93;3.70;;;18.30;99.90;;;;;;5092966;28;20025;-62
2022/06/12 05:00:56;;;;;;;;;;;18.40;99.90;;;;;;5093546;28;20024;-61
2022/06/12 05:03:22;;;;;;;11.75;3.85;;;18.50;99.90;;;;;;5093057;28;19998;-62
2022/06/12 05:05:47;;;;;;;3.50;3.13;;;18.50;99.90;;;;;;5092846;28;20060;-62
2022/06/12 05:08:14;;;;;;;4.30;3.55;;;18.60;99.90;;;;;;5093250;28;20032;-61
2022/06/12 05:10:40;;;;;;;7.20;3.50;;;18.60;99.90;;;;;;5093568;28;20476;-60
2022/06/12 05:13:06;;;;;;;4.57;3.55;;;18.70;99.90;;;;;;5093151;28;20028;-62
2022/06/12 05:15:32;;;;;;;5.50;3.85;;;18.70;99.90;;;;;;5093054;28;20064;-62
2022/06/12 05:17:57;;;;;;;6.40;3.63;;;18.80;99.90;;;;;;5093310;28;20020;-62
2022/06/12 05:20:26;;;;;;;7.95;4.28;;;18.90;99.90;;;;;;5093189;28;20067;-59
2022/06/12 05:22:52;;;;;;;7.70;4.65;;;19.00;99.90;;;;;;5074752;28;20476;-61
2022/06/12 05:25:18;;;;;;;4.25;3.83;;;19.00;99.90;;;;;;5092856;28;20032;-59
2022/06/12 05:27:45;;;;;;;4.88;3.33;;;19.20;99.90;;;;;;5093374;28;20127;-62
2022/06/12 05:30:19;;;;;;;8.98;3.65;;;19.30;99.90;;;;;;5092810;28;20024;-62
2022/06/12 05:32:47;;;;;;;6.43;3.75;;;19.30;99.90;;;;;;5093676;28;20028;-63
2022/06/12 05:35:14;;;;;;;8.43;3.95;;;19.50;99.90;;;;;;5096809;28;20472;-61
2022/06/12 05:37:40;;;;;;;6.53;3.95;;;19.50;99.90;;;;;;5096970;28;20020;-60
2022/06/12 05:40:10;;;;;;;5.40;3.40;;;19.50;99.90;;;;;;5078860;28;20020;-62
2022/06/12 05:42:37;;;;;;;8.73;3.80;;;19.50;99.90;;;;;;5096810;28;20384;-62
2022/06/12 05:45:08;;;;;;;4.25;3.63;;;19.50;99.90;;;;;;5078670;28;20031;-62
2022/06/12 05:47:34;;;;;;;6.30;3.30;;;19.50;99.90;;;;;;5096883;28;20028;-62
2022/06/12 05:50:00;;;;;;;4.43;3.50;;;19.50;99.90;;;;;;5096852;28;20472;-62
2022/06/12 05:52:25;;;;;;;4.70;3.85;;;19.50;99.90;;;;;;5096946;28;20032;-62
2022/06/12 05:54:51;;;;;;;6.57;4.13;;;19.60;99.90;;;;;;5097345;28;20030;-61
2022/06/12 05:57:16;;;;;;;6.28;3.47;;;19.60;99.90;;;;;;5078355;28;20024;-62
2022/06/12 05:59:42;;;;;;;6.38;3.63;;;19.70;99.90;;;;;;5096592;28;20107;-62
2022/06/12 06:02:07;;;;;;;5.85;4.05;;;19.70;99.90;;;;;;5078127;28;20055;-62
2022/06/12 06:04:34;;;;;;;6.32;3.17;;;19.80;99.90;;;;;;5078250;28;20388;-62
2022/06/12 06:07:00;;;;;;;6.00;3.95;;;19.80;99.90;;;;;;5096118;28;20456;-60
2022/06/12 06:09:27;;;;;;;6.57;4.35;;;19.90;99.90;;;;;;5096085;28;20123;-62
2022/06/12 06:11:54;;;;;;;5.82;4.03;;;19.90;99.90;;;;;;5096214;28;20028;-59
2022/06/12 06:14:20;;;;;;;8.65;4.80;;;20.00;99.90;;;;;;5096085;28;20016;-61
2022/06/12 06:16:46;;;;;;;6.13;4.03;;;20.00;99.90;;;;;;5104598;28;20433;-62
2022/06/12 06:19:13;;;;;;;8.85;4.70;;;20.00;99.90;;;;;;5101325;28;20107;-58
2022/06/12 06:21:40;;;;;;;9.05;4.72;;;20.10;99.90;;;;;;5077714;28;20384;-61
2022/06/12 06:24:07;;;;;;;8.20;4.18;;;20.10;99.90;;;;;;5095940;28;20081;-60
2022/06/12 06:26:33;;;;;;;8.85;4.90;;;20.20;99.90;;;;;;5078154;28;20032;-61
2022/06/12 06:28:58;;;;;;;7.75;5.80;;;20.20;99.90;;;;;;5096177;28;20028;-61
2022/06/12 06:31:25;;;;;;;9.00;5.60;;;20.30;99.90;;;;;;5095972;28;20028;-62
2022/06/12 06:33:51;;;;;;;6.88;4.40;;;20.40;99.90;;;;;;5095674;28;20027;-62
2022/06/12 06:36:17;;;;;;;6.95;5.05;;;20.60;99.90;;;;;;5096016;28;20017;-60
2022/06/12 06:38:45;;;;;;;8.98;4.75;;;20.60;99.90;;;;;;5097609;28;20107;-61
2022/06/12 06:41:11;;;;;;;8.13;4.93;;;20.70;99.90;;;;;;5096790;28;20048;-60
2022/06/12 06:46:23;;;;;;;7.13;4.40;;;20.80;99.90;;;;;;5096032;28;20115;-61
2022/06/12 06:48:49;;;;;;;8.63;4.30;;;20.90;99.90;;;;;;5077999;28;20094;-63
2022/06/12 06:51:15;;;;;;;6.55;4.47;;;20.90;99.90;;;;;;5095220;28;20493;-61
2022/06/12 06:53:40;;;;;;;8.73;3.90;;;20.90;99.90;;;;;;5095294;28;20085;-63
2022/06/12 06:56:06;;;;;;;8.65;4.32;;;21.00;99.90;;;;;;5095398;28;20392;-60
2022/06/12 06:58:32;;;;;;;7.18;4.13;;;21.10;99.90;;;;;;5095181;28;20419;-61
2022/06/12 07:00:59;;;;;;;7.68;4.00;;;21.20;99.90;;;;;;5095432;28;20028;-61
2022/06/12 07:03:24;;;;;;;6.65;4.10;;;21.30;99.90;;;;;;5095347;28;20032;-61
2022/06/12 07:05:51;;;;;;;9.98;4.60;;;21.40;99.90;;;;;;5107222;22;20502;-67
2022/06/12 07:08:19;;;;;;;7.25;3.83;;;21.50;99.90;;;;;;5077579;28;20030;-66
2022/06/12 07:10:46;;;;;;;6.88;3.70;;;21.60;99.90;;;;;;5096534;28;20104;-65
2022/06/12 07:13:12;;;;;;;7.00;3.45;;;21.80;99.90;;;;;;5095967;28;20031;-65
2022/06/12 07:15:38;;;;;;;4.57;3.10;;;21.70;99.90;;;;;;5095714;28;20021;-66
2022/06/12 07:18:05;;;;;;;7.63;3.95;;;21.80;99.90;;;;;;5095449;28;20515;-66
2022/06/12 07:20:35;;;;;;;6.45;4.05;;;21.80;99.90;;;;;;5095738;28;20067;-65
2022/06/12 07:23:03;;;;;;;6.18;3.35;;;22.00;99.90;;;;;;5095051;28;20051;-66
2022/06/12 07:25:30;;;;;;;6.68;4.03;;;22.00;99.90;;;;;;5094538;28;20028;-65
2022/06/12 07:27:56;;;;;;;6.55;3.30;;;22.10;99.90;;;;;;5076526;28;20122;-66
2022/06/12 07:30:23;;;;;;;6.63;3.42;;;22.10;99.90;;;;;;5094610;28;20495;-66
2022/06/12 07:32:49;;;;;;;6.90;3.85;;;22.20;99.90;;;;;;5094644;28;20066;-65
2022/06/12 07:35:15;;;;;;;10.20;3.40;;;22.20;99.90;;;;;;5076387;28;20051;-65
2022/06/12 07:37:41;;;;;;;7.22;3.42;;;22.30;99.90;;;;;;5076715;28;20031;-66
2022/06/12 07:40:12;;;;;;;5.75;3.47;;;22.50;99.90;;;;;;5094532;28;20030;-66
2022/06/12 07:42:37;;;;;;;4.53;3.10;;;22.60;99.90;;;;;;5095035;28;20103;-65
2022/06/12 07:45:04;;;;;;;8.25;3.45;;;23.30;99.90;;;;;;5094485;28;20036;-64
2022/06/12 07:47:29;;;;;;;4.40;2.95;;;25.00;99.90;;;;;;5075799;28;20028;-65
2022/06/12 07:49:55;;;;;;;9.88;3.15;;;27.20;98.60;;;;;;5093983;28;20031;-65
2022/06/12 07:52:21;;;;;;;6.25;2.92;;;28.70;95.10;;;;;;5094323;28;20016;-65
2022/06/12 07:54:47;;;;;;;3.78;2.80;;;29.20;93.10;;;;;;5093771;28;20016;-64
2022/06/12 07:57:13;;;;;;;3.83;2.50;;;28.60;92.60;;;;;;5093383;28;20391;-63
2022/06/12 07:59:39;;;;;;;4.07;2.85;;;28.00;93.10;;;;;;5093888;28;20016;-63
2022/06/12 08:02:05;;;;;;;5.15;3.10;;;27.30;93.60;;;;;;5093791;28;20095;-62
2022/06/12 08:04:31;;;;;;;4.82;2.65;;;26.80;94.50;;;;;;5094556;28;20052;-63
2022/06/12 08:06:56;;;;;;;6.82;2.88;;;27.00;94.30;;;;;;5093515;28;20484;-63
2022/06/12 08:09:22;;;;;;;4.38;2.45;;;28.60;93.20;;;;;;5093974;28;20024;-63
2022/06/12 08:11:49;;;;;;;10.55;2.78;;;30.50;90.50;;;;;;5075662;28;20119;-63
2022/06/12 08:14:17;;;;;;;8.93;2.30;;;32.60;86.90;;;;;;5093563;28;20049;-63
2022/06/12 08:16:43;;;;;;;4.00;2.53;;;34.40;80.40;;;;;;5093346;28;20031;-63
2022/06/12 08:21:54;;;;;;;3.58;2.15;;;36.40;71.80;;;;;;5093593;28;20058;-64
2022/06/12 08:24:19;;;;;;;2.65;2.20;;;36.70;67.10;;;;;;5093277;28;20465;-63
2022/06/12 08:26:45;;;;;;;3.95;2.40;;;36.90;65.90;;;;;;5093285;28;20032;-63
2022/06/12 08:29:12;;;;;;;3.85;2.30;;;36.60;64.90;;;;;;5075155;28;20408;-63
2022/06/12 08:31:42;;;;;;;2.38;2.00;;;37.60;64.50;;;;;;5093492;28;20055;-64
2022/06/12 08:34:12;;;;;;;3.70;2.40;;;38.30;62.30;;;;;;5093665;28;20036;-68
2022/06/12 08:36:39;;;;;;;4.13;2.15;;;39.00;61.30;;;;;;5093144;28;20039;-64
2022/06/12 08:39:06;;;;;;;3.25;2.30;;;38.90;60.30;;;;;;5093143;28;20099;-64
2022/06/12 08:41:40;;;;;;;2.55;2.15;;;39.10;59.50;;;;;;5093093;28;20031;-64
2022/06/12 08:44:31;;;;;;;3.83;2.10;;;40.00;58.60;;;;;;5093254;28;20024;-64
2022/06/12 08:47:16;;;;;;;4.50;2.10;;;40.80;57.40;;;;;;5074776;28;20037;-64
2022/06/12 08:49:46;;;;;;;3.20;2.70;;;41.20;55.80;;;;;;5074844;28;20028;-64
2022/06/12 08:52:21;;;;;;;3.30;2.00;;;40.60;55.60;;;;;;5092829;28;20028;-64
2022/06/12 08:55:01;;;;;;;4.00;2.42;;;40.90;54.70;;;;;;5093313;28;20123;-64
2022/06/12 08:57:52;;;;;;;2.45;2.25;;;40.70;54.30;;;;;;5092948;28;20094;-64
2022/06/12 09:00:24;;;;;;;3.30;2.20;;;40.90;54.30;;;;;;5092830;28;20051;-64
2022/06/12 09:02:51;;;;;;;2.47;2.00;;;40.70;54.60;;;;;;5092912;28;20020;-64
2022/06/12 09:05:21;;;;;;;2.70;1.90;;;40.70;54.30;;;;;;5092753;28;20024;-64
2022/06/12 09:08:15;;;;;;;2.50;1.80;;;40.60;54.10;;;;;;5095612;28;20028;-64
2022/06/12 09:10:45;;;;;;;3.88;1.85;;;40.00;53.20;;;;;;5097161;28;20479;-64
2022/06/12 09:13:28;;;;;;;3.58;1.90;;;39.10;54.60;;;;;;5097315;28;20020;-63
2022/06/12 09:15:59;;;;;;;3.47;1.70;;;39.00;53.40;;;;;;5097273;28;20047;-64
2022/06/12 09:18:40;;;;;;;2.60;1.67;;;39.30;53.70;;;;;;5096869;28;20031;-64
2022/06/12 09:21:47;;;;;;;3.55;2.00;;;40.70;52.50;;;;;;5096903;28;20047;-64
2022/06/12 09:24:36;;;;;;;2.88;1.85;;;41.50;51.80;;;;;;5067699;28;20483;-64
2022/06/12 09:27:43;;;;;;;2.97;1.67;;;42.00;50.70;;;;;;5096606;28;20055;-64
2022/06/12 09:30:26;;;;;;;4.82;1.90;;;42.00;50.20;;;;;;5075434;28;20046;-64
2022/06/12 09:33:16;;;;;;;2.90;1.73;;;40.80;51.40;;;;;;5096896;28;20024;-64
2022/06/12 09:35:57;;;;;;;2.38;1.95;;;41.10;51.20;;;;;;5097032;28;20022;-64
2022/06/12 09:38:28;;;;;;;2.85;1.80;;;41.30;51.50;;;;;;5096500;28;20031;-64
2022/06/12 09:41:17;;;;;;;2.35;1.77;;;41.20;50.90;;;;;;5078253;28;20038;-63
2022/06/12 09:44:01;;;;;;;2.92;1.63;;;41.40;50.60;;;;;;5078249;28;20039;-64
2022/06/12 09:46:44;;;;;;;1.83;1.65;;;42.50;48.80;;;;;;5096548;28;20028;-64
2022/06/12 09:49:15;;;;;;;2.55;2.13;;;42.60;49.20;;;;;;5077896;28;20031;-65
2022/06/12 09:52:04;;;;;;;2.58;1.80;;;42.80;48.40;;;;;;5096133;28;20369;-65
2022/06/12 09:54:49;;;;;;;5.20;1.50;;;42.30;48.20;;;;;;5094341;28;20019;-64
2022/06/12 09:57:21;;;;;;;2.95;1.80;;;41.10;49.00;;;;;;5096461;28;20127;-65
2022/06/12 10:00:09;;;;;;;3.72;1.83;;;41.10;49.70;;;;;;5095632;28;20427;-65
2022/06/12 10:02:44;;;;;;;2.20;1.70;;;41.60;48.70;;;;;;5095998;28;20032;-65
2022/06/12 10:05:20;;;;;;;3.78;1.95;;;41.50;49.80;;;;;;5096301;28;20059;-65
2022/06/12 10:08:08;;;;;;;4.82;2.15;;;41.10;49.80;;;;;;5096280;28;20031;-66
2022/06/12 10:10:42;;;;;;;4.22;2.10;;;41.50;49.80;;;;;;5096042;28;20027;-65
2022/06/12 10:13:12;;;;;;;3.40;1.90;;;41.80;49.20;;;;;;5095992;28;20024;-65
2022/06/12 10:15:50;;;;;;;2.40;1.60;;;42.30;48.10;;;;;;5096176;28;20077;-65
2022/06/12 10:18:24;;;;;;;4.05;1.92;;;40.80;49.10;;;;;;5077348;28;20020;-65
2022/06/12 10:20:55;;;;;;;2.70;1.70;;;40.10;50.20;;;;;;5095638;28;20059;-65
2022/06/12 10:23:22;;;;;;;3.53;1.73;;;39.70;51.10;;;;;;5096134;28;20039;-65
2022/06/12 10:25:56;;;;;;;4.18;2.33;;;40.40;50.10;;;;;;5096048;28;20047;-65
2022/06/12 10:28:27;;;;;;;2.80;2.00;;;40.60;50.30;;;;;;5095799;28;20023;-64
2022/06/12 10:31:03;;;;;;;4.22;2.15;;;39.60;51.30;;;;;;5095659;28;20499;-64
2022/06/12 10:34:14;;;;;;;3.83;1.95;;;40.30;51.20;;;;;;5095773;28;20028;-64
2022/06/12 10:36:40;;;;;;;4.13;2.10;;;40.50;50.50;;;;;;5095968;28;20111;-64
2022/06/12 10:39:20;;;;;;;2.50;2.28;;;41.50;50.10;;;;;;5095572;28;20061;-65
2022/06/12 10:41:51;;;;;;;2.30;1.75;;;41.70;49.40;;;;;;5095688;28;20034;-65
2022/06/12 10:44:28;;;;;;;3.60;1.83;;;41.50;48.90;;;;;;5077711;28;20380;-65
2022/06/12 10:46:54;;;;;;;4.25;2.05;;;41.60;48.80;;;;;;5095719;28;20024;-66
2022/06/12 10:49:24;;;;;;;2.13;1.70;;;41.60;48.20;;;;;;5077284;28;20020;-66
2022/06/12 10:51:51;;;;;;;3.72;1.85;;;41.40;48.90;;;;;;5095504;28;20028;-66
2022/06/12 10:54:22;;;;;;;3.88;1.90;;;41.60;48.10;;;;;;5095455;28;20035;-65
2022/06/12 10:57:13;;;;;;;3.92;1.73;;;41.30;48.10;;;;;;5095321;28;20534;-66
2022/06/12 10:59:40;;;;;;;5.75;1.98;;;40.30;48.30;;;;;;5095402;28;20028;-66
2022/06/12 11:02:47;;;;;;;3.17;1.83;;;40.30;48.20;;;;;;5095247;28;20084;-67
2022/06/12 11:05:35;;;;;;;2.47;1.77;;;40.00;48.00;;;;;;5086575;28;20028;-65
2022/06/12 11:08:26;;;;;;;3.38;1.88;;;40.00;48.20;;;;;;5077378;28;20032;-66
2022/06/12 11:10:55;;;;;;;4.40;1.63;;;39.10;48.80;;;;;;5079194;28;20050;-66
2022/06/12 11:13:26;;;;;;;3.80;1.48;;;38.00;49.10;;;;;;5097016;28;20024;-66
2022/06/12 11:16:15;;;;;;;4.32;1.85;;;36.30;50.70;;;;;;5076959;28;20027;-65
2022/06/12 11:19:15;;;;;;;4.05;1.60;;;34.60;52.70;;;;;;5095129;28;20020;-65
2022/06/12 11:22:19;;;;;;;2.65;1.77;;;33.40;54.70;;;;;;5094972;28;20113;-65
2022/06/12 11:24:59;;;;;;;2.22;1.75;;;32.40;56.10;;;;;;5071675;28;20087;-65
2022/06/12 11:27:42;;;;;;;3.88;2.00;;;31.80;57.90;;;;;;5095185;28;20023;-65
2022/06/12 11:30:46;;;;;;;4.82;2.00;;;31.60;57.90;;;;;;5076381;28;20371;-65
2022/06/12 11:33:33;;;;;;;4.30;1.88;;;31.40;58.40;;;;;;5076807;28;20024;-65
2022/06/12 11:36:22;;;;;;;3.38;2.20;;;31.10;59.40;;;;;;5095628;28;20020;-65
2022/06/12 11:39:18;;;;;;;3.15;1.80;;;31.00;60.10;;;;;;5095256;28;20020;-65
2022/06/12 11:42:08;;;;;;;5.47;2.15;;;30.80;60.00;;;;;;5095397;28;20031;-67
2022/06/12 11:44:39;;;;;;;3.47;1.83;;;30.60;60.20;;;;;;5077478;28;20046;-68
2022/06/12 11:47:42;;;;;;;4.03;1.90;;;30.30;60.30;;;;;;5094916;28;20120;-66
2022/06/12 11:50:29;;;;;;;4.82;2.33;;;30.20;60.80;;;;;;5094751;28;20025;-65
2022/06/12 11:53:22;;;;;;;3.72;2.13;;;30.30;60.80;;;;;;5095147;28;20013;-65
2022/06/12 11:56:07;;;;;;;2.42;2.22;;;30.60;61.40;;;;;;5099359;28;20137;-66
2022/06/12 11:59:02;;;;;;;4.13;1.88;;;30.60;61.40;;;;;;5096975;28;20076;-66
2022/06/12 12:01:41;;;;;;;4.10;1.67;;;30.60;61.20;;;;;;5094313;28;20073;-66
2022/06/12 12:04:12;;;;;;;5.28;2.30;;;30.70;61.20;;;;;;5094547;28;20027;-66
2022/06/12 12:07:03;;;;;;;2.75;1.95;;;30.50;60.40;;;;;;5094689;28;20050;-66
2022/06/12 12:10:10;;;;;;;5.60;2.20;;;30.40;61.30;;;;;;5094297;28;20013;-65
2022/06/12 12:12:40;;;;;;;4.43;2.53;;;30.60;61.40;;;;;;5094393;28;20036;-66
2022/06/12 12:15:28;;;;;;;4.53;2.00;;;30.60;61.40;;;;;;5094636;28;20103;-64
2022/06/12 12:17:56;;;;;;;2.25;1.90;;;30.70;61.40;;;;;;5096129;28;20051;-65
2022/06/12 12:20:33;;;;;;;4.00;2.13;;;30.80;61.50;;;;;;5095762;28;20020;-66
2022/06/12 12:23:04;;;;;;;3.53;2.13;;;30.80;61.70;;;;;;5093747;28;20036;-65
2022/06/12 12:25:55;;;;;;;3.00;2.22;;;30.90;61.10;;;;;;5075384;28;20028;-66
2022/06/12 12:28:36;;;;;;;4.68;1.88;;;30.80;61.00;;;;;;5093467;28;20105;-64
2022/06/12 12:31:09;;;;;;;4.68;2.05;;;30.80;61.40;;;;;;5093663;28;20020;-64
2022/06/12 12:33:35;;;;;;;3.22;1.98;;;30.70;61.60;;;;;;5093279;28;20104;-65
2022/06/12 12:41:45;;;;;;;4.05;2.33;;;30.70;61.40;;;;;;5092707;28;20028;-65
2022/06/12 12:44:14;;;;;;;4.22;1.70;;;30.60;60.70;;;;;;5092695;28;20020;-65
2022/06/12 12:46:48;;;;;;;2.13;1.55;;;30.50;59.60;;;;;;5075224;28;20024;-65
2022/06/12 12:49:29;;;;;;;3.95;1.70;;;30.50;59.30;;;;;;5093286;28;20049;-65
2022/06/12 12:52:12;;;;;;;2.85;1.23;;;30.50;59.80;;;;;;5093333;28;20024;-65
2022/06/12 12:54:43;;;;;;;2.65;1.30;;;30.50;59.80;;;;;;5093242;28;20131;-65
2022/06/12 12:57:08;;;;;;;4.00;1.83;;;30.50;60.50;;;;;;5093061;28;20021;-63
2022/06/12 12:59:42;;;;;;;6.07;1.92;;;30.40;59.60;;;;;;5091936;28;20028;-65
2022/06/12 13:02:36;;;;;;;3.80;1.52;;;30.50;59.20;;;;;;5093048;28;20028;-65
2022/06/12 13:05:17;;;;;;;4.22;2.38;;;30.50;58.80;;;;;;5061349;28;20067;-65
2022/06/12 13:07:52;;;;;;;121.75;47.25;;;30.50;59.70;;;;;;5093604;28;20553;-60
2022/06/12 13:10:54;;;;;;;6.63;2.58;;;30.40;63.20;;;;;;5093179;28;20024;-62
2022/06/12 13:13:58;;;;;;;156.48;71.00;;;30.50;59.60;;;;;;5093010;28;20023;-63
2022/06/12 13:16:38;;;;;;;22.67;17.33;;;30.30;61.90;;;;;;5081976;28;20040;-63
2022/06/12 13:19:07;;;;;;;4.57;1.73;;;30.00;61.40;;;;;;5093057;28;20023;-64
2022/06/12 13:21:47;;;;;;;3.80;1.67;;;30.10;60.40;;;;;;5095993;28;20024;-64
2022/06/12 13:24:43;;;;;;;33.47;8.02;;;30.00;60.30;;;;;;5099178;28;20028;-63
2022/06/12 13:27:22;;;;;;;3.57;1.70;;;30.00;62.40;;;;;;5093328;28;20469;-63
2022/06/12 13:29:50;;;;;;;16.63;5.95;;;30.20;60.50;;;;;;5092937;28;20361;-62
2022/06/12 13:32:28;;;;;;;3.55;1.73;;;30.40;60.50;;;;;;5074856;28;20035;-63
2022/06/12 13:35:03;;;;;;;10.85;4.10;;;30.50;59.40;;;;;;5093095;28;20029;-63
2022/06/12 13:37:33;;;;;;;5.30;2.60;;;30.60;60.40;;;;;;5092531;28;20035;-64
2022/06/12 13:40:20;;;;;;;4.00;1.75;;;30.50;60.40;;;;;;5092831;28;20035;-62